sensor_id;sensor_type;location;lat;lon;timestamp;temperature;humidity
34574;DHT22;20809;49.594;8.734;2023-04-15T00:01:21;3.40;99.90
34574;DHT22;20809;49.594;8.734;2023-04-15T00:04:23;3.30;99.90
34574;DHT22;20809;49.594;8.734;2023-04-15T00:07:27;3.20;99.90
34574;DHT22;20809;49.594;8.734;2023-04-15T00:10:29;3.20;99.90
34574;DHT22;20809;49.594;8.734;2023-04-15T00:13:31;3.20;99.90
34574;DHT22;20809;49.594;8.734;2023-04-15T00:16:36;3.10;99.90
34574;DHT22;20809;49.594;8.734;2023-04-15T00:19:38;3.10;99.90
34574;DHT22;20809;49.594;8.734;2023-04-15T00:22:40;3.00;99.90
34574;DHT22;20809;49.594;8.734;2023-04-15T00:25:44;3.00;99.90
34574;DHT22;20809;49.594;8.734;2023-04-15T00:28:49;3.10;99.90
34574;DHT22;20809;49.594;8.734;2023-04-15T00:31:52;3.00;99.90
34574;DHT22;20809;49.594;8.734;2023-04-15T00:34:58;3.00;99.90
34574;DHT22;20809;49.594;8.734;2023-04-15T00:37:59;3.00;99.90
34574;DHT22;20809;49.594;8.734;2023-04-15T00:41:02;3.00;99.90
34574;DHT22;20809;49.594;8.734;2023-04-15T00:44:04;3.00;99.90
34574;DHT22;20809;49.594;8.734;2023-04-15T00:47:07;3.00;99.90
34574;DHT22;20809;49.594;8.734;2023-04-15T00:50:10;2.90;99.90
34574;DHT22;20809;49.594;8.734;2023-04-15T00:53:12;2.90;99.90
34574;DHT22;20809;49.594;8.734;2023-04-15T00:59:08;2.80;99.90
34574;DHT22;20809;49.594;8.734;2023-04-15T01:02:14;2.70;99.90
34574;DHT22;20809;49.594;8.734;2023-04-15T01:05:16;2.70;99.90
34574;DHT22;20809;49.594;8.734;2023-04-15T01:08:19;2.70;99.90
34574;DHT22;20809;49.594;8.734;2023-04-15T01:11:20;2.60;99.90
34574;DHT22;20809;49.594;8.734;2023-04-15T01:14:24;2.50;99.90
34574;DHT22;20809;49.594;8.734;2023-04-15T01:17:26;2.50;99.90
34574;DHT22;20809;49.594;8.734;2023-04-15T01:20:28;2.40;99.90
34574;DHT22;20809;49.594;8.734;2023-04-15T01:23:34;2.30;99.90
34574;DHT22;20809;49.594;8.734;2023-04-15T01:26:38;2.30;99.90
34574;DHT22;20809;49.594;8.734;2023-04-15T01:29:42;2.20;99.90
34574;DHT22;20809;49.594;8.734;2023-04-15T01:32:45;2.20;99.90
34574;DHT22;20809;49.594;8.734;2023-04-15T01:35:47;2.10;99.90
34574;DHT22;20809;49.594;8.734;2023-04-15T01:38:48;2.10;99.90
34574;DHT22;20809;49.594;8.734;2023-04-15T01:41:50;2.10;99.90
34574;DHT22;20809;49.594;8.734;2023-04-15T01:44:52;2.10;99.90
34574;DHT22;20809;49.594;8.734;2023-04-15T01:47:56;2.00;99.90
34574;DHT22;20809;49.594;8.734;2023-04-15T01:51:00;2.10;99.90
34574;DHT22;20809;49.594;8.734;2023-04-15T01:54:01;2.10;99.90
34574;DHT22;20809;49.594;8.734;2023-04-15T01:57:02;2.20;99.90
34574;DHT22;20809;49.594;8.734;2023-04-15T02:00:08;2.20;99.90
34574;DHT22;20809;49.594;8.734;2023-04-15T02:03:10;2.30;99.90
34574;DHT22;20809;49.594;8.734;2023-04-15T02:06:10;2.30;99.90
34574;DHT22;20809;49.594;8.734;2023-04-15T02:09:12;2.30;99.90
34574;DHT22;20809;49.594;8.734;2023-04-15T02:12:13;2.20;99.90
34574;DHT22;20809;49.594;8.734;2023-04-15T02:15:15;2.20;99.90
34574;DHT22;20809;49.594;8.734;2023-04-15T02:18:16;2.10;99.90
34574;DHT22;20809;49.594;8.734;2023-04-15T02:21:21;2.00;99.90
34574;DHT22;20809;49.594;8.734;2023-04-15T02:24:23;1.90;99.90
34574;DHT22;20809;49.594;8.734;2023-04-15T02:27:24;1.90;99.90
34574;DHT22;20809;49.594;8.734;2023-04-15T02:30:25;1.90;99.90
34574;DHT22;20809;49.594;8.734;2023-04-15T02:33:26;1.80;99.90
34574;DHT22;20809;49.594;8.734;2023-04-15T02:36:27;1.80;99.90
34574;DHT22;20809;49.594;8.734;2023-04-15T02:39:29;1.70;99.90
34574;DHT22;20809;49.594;8.734;2023-04-15T02:42:30;1.70;99.90
34574;DHT22;20809;49.594;8.734;2023-04-15T02:45:32;1.70;99.90
34574;DHT22;20809;49.594;8.734;2023-04-15T02:48:33;1.70;99.90
34574;DHT22;20809;49.594;8.734;2023-04-15T02:51:35;1.70;99.90
34574;DHT22;20809;49.594;8.734;2023-04-15T02:54:36;1.60;99.90
34574;DHT22;20809;49.594;8.734;2023-04-15T02:57:37;1.60;99.90
34574;DHT22;20809;49.594;8.734;2023-04-15T03:00:40;1.70;99.90
34574;DHT22;20809;49.594;8.734;2023-04-15T03:03:42;1.70;99.90
34574;DHT22;20809;49.594;8.734;2023-04-15T03:06:43;1.80;99.90
34574;DHT22;20809;49.594;8.734;2023-04-15T03:09:45;1.80;99.90
34574;DHT22;20809;49.594;8.734;2023-04-15T03:12:50;1.80;99.90
34574;DHT22;20809;49.594;8.734;2023-04-15T03:15:55;1.80;99.90
34574;DHT22;20809;49.594;8.734;2023-04-15T03:18:57;1.70;99.90
34574;DHT22;20809;49.594;8.734;2023-04-15T03:21:58;1.60;99.90
34574;DHT22;20809;49.594;8.734;2023-04-15T03:25:00;1.50;99.90
34574;DHT22;20809;49.594;8.734;2023-04-15T03:28:01;1.50;99.90
34574;DHT22;20809;49.594;8.734;2023-04-15T03:31:02;1.50;99.90
34574;DHT22;20809;49.594;8.734;2023-04-15T03:34:03;1.50;99.90
34574;DHT22;20809;49.594;8.734;2023-04-15T03:37:04;1.50;99.90
34574;DHT22;20809;49.594;8.734;2023-04-15T03:40:07;1.40;99.90
34574;DHT22;20809;49.594;8.734;2023-04-15T03:43:09;1.40;99.90
34574;DHT22;20809;49.594;8.734;2023-04-15T03:46:10;1.40;99.90
34574;DHT22;20809;49.594;8.734;2023-04-15T03:49:13;1.40;99.90
34574;DHT22;20809;49.594;8.734;2023-04-15T03:52:14;1.40;99.90
34574;DHT22;20809;49.594;8.734;2023-04-15T03:55:16;1.40;99.90
34574;DHT22;20809;49.594;8.734;2023-04-15T03:58:20;1.40;99.90
34574;DHT22;20809;49.594;8.734;2023-04-15T04:01:22;1.50;99.90
34574;DHT22;20809;49.594;8.734;2023-04-15T04:04:24;1.50;99.90
34574;DHT22;20809;49.594;8.734;2023-04-15T04:07:27;1.50;99.90
34574;DHT22;20809;49.594;8.734;2023-04-15T04:10:31;1.50;99.90
34574;DHT22;20809;49.594;8.734;2023-04-15T04:13:32;1.60;99.90
34574;DHT22;20809;49.594;8.734;2023-04-15T04:16:35;1.50;99.90
34574;DHT22;20809;49.594;8.734;2023-04-15T04:19:38;1.50;99.90
34574;DHT22;20809;49.594;8.734;2023-04-15T04:22:41;1.50;99.90
34574;DHT22;20809;49.594;8.734;2023-04-15T04:25:44;1.40;99.90
34574;DHT22;20809;49.594;8.734;2023-04-15T04:28:48;1.40;99.90
34574;DHT22;20809;49.594;8.734;2023-04-15T04:31:50;1.50;99.90
34574;DHT22;20809;49.594;8.734;2023-04-15T04:34:55;1.50;99.90
34574;DHT22;20809;49.594;8.734;2023-04-15T04:37:57;1.50;99.90
34574;DHT22;20809;49.594;8.734;2023-04-15T04:41:04;1.50;99.90
34574;DHT22;20809;49.594;8.734;2023-04-15T04:44:07;1.40;99.90
34574;DHT22;20809;49.594;8.734;2023-04-15T04:47:09;1.40;99.90
34574;DHT22;20809;49.594;8.734;2023-04-15T04:50:11;1.30;99.90
34574;DHT22;20809;49.594;8.734;2023-04-15T04:53:12;1.30;99.90
34574;DHT22;20809;49.594;8.734;2023-04-15T04:56:15;1.30;99.90
34574;DHT22;20809;49.594;8.734;2023-04-15T04:59:17;1.40;99.90
34574;DHT22;20809;49.594;8.734;2023-04-15T05:02:24;1.40;99.90
34574;DHT22;20809;49.594;8.734;2023-04-15T05:05:29;1.40;99.90
34574;DHT22;20809;49.594;8.734;2023-04-15T05:08:31;1.30;99.90
34574;DHT22;20809;49.594;8.734;2023-04-15T05:11:34;1.40;99.90
34574;DHT22;20809;49.594;8.734;2023-04-15T05:14:36;1.30;99.90
34574;DHT22;20809;49.594;8.734;2023-04-15T05:17:37;1.30;99.90
34574;DHT22;20809;49.594;8.734;2023-04-15T05:20:38;1.40;99.90
34574;DHT22;20809;49.594;8.734;2023-04-15T05:23:41;1.50;99.90
34574;DHT22;20809;49.594;8.734;2023-04-15T05:26:43;1.60;99.90
34574;DHT22;20809;49.594;8.734;2023-04-15T05:29:45;1.60;99.90
34574;DHT22;20809;49.594;8.734;2023-04-15T05:32:46;1.70;99.90
34574;DHT22;20809;49.594;8.734;2023-04-15T05:35:52;1.80;99.90
34574;DHT22;20809;49.594;8.734;2023-04-15T05:38:55;1.90;99.90
34574;DHT22;20809;49.594;8.734;2023-04-15T05:41:57;1.90;99.90
34574;DHT22;20809;49.594;8.734;2023-04-15T05:44:58;2.00;99.90
34574;DHT22;20809;49.594;8.734;2023-04-15T05:48:00;2.20;99.90
34574;DHT22;20809;49.594;8.734;2023-04-15T05:51:03;2.30;99.90
34574;DHT22;20809;49.594;8.734;2023-04-15T05:54:04;2.40;99.90
34574;DHT22;20809;49.594;8.734;2023-04-15T05:57:08;2.50;99.90
34574;DHT22;20809;49.594;8.734;2023-04-15T06:00:11;2.60;99.90
34574;DHT22;20809;49.594;8.734;2023-04-15T06:03:14;2.60;99.90
34574;DHT22;20809;49.594;8.734;2023-04-15T06:06:18;2.70;99.90
34574;DHT22;20809;49.594;8.734;2023-04-15T06:09:22;2.80;99.90
34574;DHT22;20809;49.594;8.734;2023-04-15T06:12:27;2.80;99.90
34574;DHT22;20809;49.594;8.734;2023-04-15T06:15:31;2.80;99.90
34574;DHT22;20809;49.594;8.734;2023-04-15T06:18:36;2.90;99.90
34574;DHT22;20809;49.594;8.734;2023-04-15T06:21:41;3.00;99.90
34574;DHT22;20809;49.594;8.734;2023-04-15T06:24:45;3.10;99.90
34574;DHT22;20809;49.594;8.734;2023-04-15T06:27:48;3.20;99.90
34574;DHT22;20809;49.594;8.734;2023-04-15T06:30:49;3.20;99.90
34574;DHT22;20809;49.594;8.734;2023-04-15T06:33:51;3.40;99.90
34574;DHT22;20809;49.594;8.734;2023-04-15T06:36:52;3.60;99.90
34574;DHT22;20809;49.594;8.734;2023-04-15T06:39:56;4.00;99.90
34574;DHT22;20809;49.594;8.734;2023-04-15T06:42:57;4.50;99.90
34574;DHT22;20809;49.594;8.734;2023-04-15T06:45:58;5.00;99.90
34574;DHT22;20809;49.594;8.734;2023-04-15T06:48:59;5.40;99.90
34574;DHT22;20809;49.594;8.734;2023-04-15T06:52:00;5.70;99.90
34574;DHT22;20809;49.594;8.734;2023-04-15T06:55:01;5.90;99.90
34574;DHT22;20809;49.594;8.734;2023-04-15T06:58:02;6.20;99.90
34574;DHT22;20809;49.594;8.734;2023-04-15T07:01:03;6.70;99.90
34574;DHT22;20809;49.594;8.734;2023-04-15T07:04:04;7.10;99.90
34574;DHT22;20809;49.594;8.734;2023-04-15T07:07:05;7.40;99.90
34574;DHT22;20809;49.594;8.734;2023-04-15T07:10:08;7.50;99.90
34574;DHT22;20809;49.594;8.734;2023-04-15T07:13:09;7.30;99.90
34574;DHT22;20809;49.594;8.734;2023-04-15T07:16:11;7.00;99.90
34574;DHT22;20809;49.594;8.734;2023-04-15T07:19:13;6.90;99.90
34574;DHT22;20809;49.594;8.734;2023-04-15T07:22:14;6.90;99.90
34574;DHT22;20809;49.594;8.734;2023-04-15T07:25:18;6.90;99.90
34574;DHT22;20809;49.594;8.734;2023-04-15T07:28:25;7.00;99.90
34574;DHT22;20809;49.594;8.734;2023-04-15T07:31:30;7.30;99.90
34574;DHT22;20809;49.594;8.734;2023-04-15T07:34:35;7.50;99.90
34574;DHT22;20809;49.594;8.734;2023-04-15T07:37:40;8.00;99.90
34574;DHT22;20809;49.594;8.734;2023-04-15T07:40:45;8.30;99.90
34574;DHT22;20809;49.594;8.734;2023-04-15T07:43:47;8.50;99.90
34574;DHT22;20809;49.594;8.734;2023-04-15T07:46:52;8.30;99.90
34574;DHT22;20809;49.594;8.734;2023-04-15T07:49:55;8.30;99.90
34574;DHT22;20809;49.594;8.734;2023-04-15T07:52:58;8.60;99.90
34574;DHT22;20809;49.594;8.734;2023-04-15T07:56:04;8.70;99.90
34574;DHT22;20809;49.594;8.734;2023-04-15T07:59:07;8.80;99.90
34574;DHT22;20809;49.594;8.734;2023-04-15T08:02:11;8.70;99.90
34574;DHT22;20809;49.594;8.734;2023-04-15T08:05:16;8.60;99.90
34574;DHT22;20809;49.594;8.734;2023-04-15T08:08:23;8.40;99.90
34574;DHT22;20809;49.594;8.734;2023-04-15T08:11:39;8.80;99.90
34574;DHT22;20809;49.594;8.734;2023-04-15T08:14:44;9.40;99.90
34574;DHT22;20809;49.594;8.734;2023-04-15T08:17:57;9.80;99.90
34574;DHT22;20809;49.594;8.734;2023-04-15T08:21:20;10.40;99.90
34574;DHT22;20809;49.594;8.734;2023-04-15T08:24:50;11.20;99.90
34574;DHT22;20809;49.594;8.734;2023-04-15T08:28:09;11.80;99.90
34574;DHT22;20809;49.594;8.734;2023-04-15T08:31:20;12.20;99.90
34574;DHT22;20809;49.594;8.734;2023-04-15T08:34:46;12.80;99.90
34574;DHT22;20809;49.594;8.734;2023-04-15T08:37:53;13.20;99.90
34574;DHT22;20809;49.594;8.734;2023-04-15T08:41:10;13.10;99.90
34574;DHT22;20809;49.594;8.734;2023-04-15T08:44:22;12.90;99.90
34574;DHT22;20809;49.594;8.734;2023-04-15T08:47:40;12.90;99.90
34574;DHT22;20809;49.594;8.734;2023-04-15T08:50:50;12.80;99.90
34574;DHT22;20809;49.594;8.734;2023-04-15T08:54:06;12.60;99.90
34574;DHT22;20809;49.594;8.734;2023-04-15T08:57:31;12.50;99.90
34574;DHT22;20809;49.594;8.734;2023-04-15T09:01:10;12.30;99.90
34574;DHT22;20809;49.594;8.734;2023-04-15T09:04:17;12.40;99.90
34574;DHT22;20809;49.594;8.734;2023-04-15T09:07:35;12.50;99.90
34574;DHT22;20809;49.594;8.734;2023-04-15T09:10:44;12.70;99.90
34574;DHT22;20809;49.594;8.734;2023-04-15T09:13:52;12.80;99.90
34574;DHT22;20809;49.594;8.734;2023-04-15T09:17:08;13.00;99.90
34574;DHT22;20809;49.594;8.734;2023-04-15T09:20:43;13.30;99.90
34574;DHT22;20809;49.594;8.734;2023-04-15T09:24:08;13.40;99.90
34574;DHT22;20809;49.594;8.734;2023-04-15T09:27:28;13.40;99.90
34574;DHT22;20809;49.594;8.734;2023-04-15T09:30:33;13.20;99.90
34574;DHT22;20809;49.594;8.734;2023-04-15T09:33:54;13.00;99.90
34574;DHT22;20809;49.594;8.734;2023-04-15T09:36:56;13.00;99.90
34574;DHT22;20809;49.594;8.734;2023-04-15T09:39:57;13.20;99.90
34574;DHT22;20809;49.594;8.734;2023-04-15T09:42:58;13.40;99.90
34574;DHT22;20809;49.594;8.734;2023-04-15T09:45:59;13.40;99.90
34574;DHT22;20809;49.594;8.734;2023-04-15T09:49:08;13.20;99.90
34574;DHT22;20809;49.594;8.734;2023-04-15T09:52:13;12.80;99.90
34574;DHT22;20809;49.594;8.734;2023-04-15T09:55:17;12.70;99.90
34574;DHT22;20809;49.594;8.734;2023-04-15T09:58:23;13.00;99.90
34574;DHT22;20809;49.594;8.734;2023-04-15T10:01:25;13.20;99.90
34574;DHT22;20809;49.594;8.734;2023-04-15T10:04:26;13.20;99.90
34574;DHT22;20809;49.594;8.734;2023-04-15T10:07:29;13.40;99.90
34574;DHT22;20809;49.594;8.734;2023-04-15T10:10:30;13.60;99.90
34574;DHT22;20809;49.594;8.734;2023-04-15T10:13:33;13.70;99.90
34574;DHT22;20809;49.594;8.734;2023-04-15T10:16:39;13.80;99.90
34574;DHT22;20809;49.594;8.734;2023-04-15T10:19:43;13.70;99.90
34574;DHT22;20809;49.594;8.734;2023-04-15T10:22:44;13.80;99.90
34574;DHT22;20809;49.594;8.734;2023-04-15T10:25:48;13.50;99.90
34574;DHT22;20809;49.594;8.734;2023-04-15T10:28:55;13.20;99.90
34574;DHT22;20809;49.594;8.734;2023-04-15T10:31:56;12.90;99.90
34574;DHT22;20809;49.594;8.734;2023-04-15T10:34:58;12.50;99.90
34574;DHT22;20809;49.594;8.734;2023-04-15T10:38:00;12.30;99.90
34574;DHT22;20809;49.594;8.734;2023-04-15T10:44:17;12.40;99.90
34574;DHT22;20809;49.594;8.734;2023-04-15T10:47:23;12.40;99.90
34574;DHT22;20809;49.594;8.734;2023-04-15T10:50:32;12.30;99.90
34574;DHT22;20809;49.594;8.734;2023-04-15T10:53:36;12.50;99.90
34574;DHT22;20809;49.594;8.734;2023-04-15T10:57:36;12.70;99.90
34574;DHT22;20809;49.594;8.734;2023-04-15T11:00:18;12.80;99.90
34574;DHT22;20809;49.594;8.734;2023-04-15T11:03:41;12.60;99.90
34574;DHT22;20809;49.594;8.734;2023-04-15T11:06:47;12.40;99.90
34574;DHT22;20809;49.594;8.734;2023-04-15T11:13:30;12.80;99.90
34574;DHT22;20809;49.594;8.734;2023-04-15T11:16:42;12.70;99.90
34574;DHT22;20809;49.594;8.734;2023-04-15T11:19:47;12.90;99.90
34574;DHT22;20809;49.594;8.734;2023-04-15T11:22:53;12.90;99.90
34574;DHT22;20809;49.594;8.734;2023-04-15T11:26:06;13.10;99.90
34574;DHT22;20809;49.594;8.734;2023-04-15T11:29:33;13.40;99.90
34574;DHT22;20809;49.594;8.734;2023-04-15T11:32:44;13.50;99.90
34574;DHT22;20809;49.594;8.734;2023-04-15T11:35:56;13.50;99.90
34574;DHT22;20809;49.594;8.734;2023-04-15T11:39:07;13.80;99.90
34574;DHT22;20809;49.594;8.734;2023-04-15T11:42:31;14.00;99.90
34574;DHT22;20809;49.594;8.734;2023-04-15T11:45:37;14.00;99.90
34574;DHT22;20809;49.594;8.734;2023-04-15T11:48:44;14.00;99.90
34574;DHT22;20809;49.594;8.734;2023-04-15T11:51:49;14.00;99.90
34574;DHT22;20809;49.594;8.734;2023-04-15T11:55:03;13.90;99.90
34574;DHT22;20809;49.594;8.734;2023-04-15T11:58:14;14.70;99.90
34574;DHT22;20809;49.594;8.734;2023-04-15T12:01:19;15.90;99.90
34574;DHT22;20809;49.594;8.734;2023-04-15T12:04:25;16.30;99.90
34574;DHT22;20809;49.594;8.734;2023-04-15T12:07:28;16.00;99.50
34574;DHT22;20809;49.594;8.734;2023-04-15T12:10:34;15.50;99.90
34574;DHT22;20809;49.594;8.734;2023-04-15T12:13:43;15.10;99.30
34574;DHT22;20809;49.594;8.734;2023-04-15T12:16:50;14.60;99.90
34574;DHT22;20809;49.594;8.734;2023-04-15T12:19:57;14.60;99.90
34574;DHT22;20809;49.594;8.734;2023-04-15T12:23:08;14.60;99.90
34574;DHT22;20809;49.594;8.734;2023-04-15T12:26:12;14.60;99.90
34574;DHT22;20809;49.594;8.734;2023-04-15T12:29:23;14.60;99.80
34574;DHT22;20809;49.594;8.734;2023-04-15T12:32:34;14.50;99.20
34574;DHT22;20809;49.594;8.734;2023-04-15T12:35:37;14.60;99.30
34574;DHT22;20809;49.594;8.734;2023-04-15T12:38:40;14.80;99.20
34574;DHT22;20809;49.594;8.734;2023-04-15T12:41:43;14.80;99.50
34574;DHT22;20809;49.594;8.734;2023-04-15T12:44:50;14.70;99.90
34574;DHT22;20809;49.594;8.734;2023-04-15T12:47:56;15.10;99.90
34574;DHT22;20809;49.594;8.734;2023-04-15T12:51:06;15.10;99.90
34574;DHT22;20809;49.594;8.734;2023-04-15T12:54:12;15.10;99.90
34574;DHT22;20809;49.594;8.734;2023-04-15T12:57:22;15.00;99.90
34574;DHT22;20809;49.594;8.734;2023-04-15T13:00:28;15.00;99.90
34574;DHT22;20809;49.594;8.734;2023-04-15T13:03:33;14.80;98.70
34574;DHT22;20809;49.594;8.734;2023-04-15T13:06:35;14.40;98.80
34574;DHT22;20809;49.594;8.734;2023-04-15T13:09:39;13.90;99.10
34574;DHT22;20809;49.594;8.734;2023-04-15T13:12:45;13.50;99.90
34574;DHT22;20809;49.594;8.734;2023-04-15T13:15:50;13.40;99.90
34574;DHT22;20809;49.594;8.734;2023-04-15T13:18:54;13.20;99.90
34574;DHT22;20809;49.594;8.734;2023-04-15T13:21:56;13.20;99.90
34574;DHT22;20809;49.594;8.734;2023-04-15T13:25:00;13.20;99.90
34574;DHT22;20809;49.594;8.734;2023-04-15T13:28:05;12.60;99.90
34574;DHT22;20809;49.594;8.734;2023-04-15T13:31:12;12.20;99.90
34574;DHT22;20809;49.594;8.734;2023-04-15T13:34:18;11.90;99.90
34574;DHT22;20809;49.594;8.734;2023-04-15T13:37:27;11.60;99.90
34574;DHT22;20809;49.594;8.734;2023-04-15T13:40:30;11.80;99.90
34574;DHT22;20809;49.594;8.734;2023-04-15T13:43:37;11.50;99.90
34574;DHT22;20809;49.594;8.734;2023-04-15T13:46:41;11.40;99.90
34574;DHT22;20809;49.594;8.734;2023-04-15T13:49:57;11.10;99.90
34574;DHT22;20809;49.594;8.734;2023-04-15T13:53:22;10.90;99.90
34574;DHT22;20809;49.594;8.734;2023-04-15T13:56:28;10.60;99.90
34574;DHT22;20809;49.594;8.734;2023-04-15T13:59:33;10.50;99.90
34574;DHT22;20809;49.594;8.734;2023-04-15T14:02:38;10.50;99.90
34574;DHT22;20809;49.594;8.734;2023-04-15T14:06:04;10.30;99.90
34574;DHT22;20809;49.594;8.734;2023-04-15T14:09:44;10.20;99.90
34574;DHT22;20809;49.594;8.734;2023-04-15T14:12:50;10.20;99.90
34574;DHT22;20809;49.594;8.734;2023-04-15T14:16:10;10.20;99.90
34574;DHT22;20809;49.594;8.734;2023-04-15T14:19:16;10.20;99.90
34574;DHT22;20809;49.594;8.734;2023-04-15T14:22:23;10.20;99.90
34574;DHT22;20809;49.594;8.734;2023-04-15T14:25:29;10.20;99.90
34574;DHT22;20809;49.594;8.734;2023-04-15T14:28:36;10.30;99.90
34574;DHT22;20809;49.594;8.734;2023-04-15T14:31:44;10.40;99.90
34574;DHT22;20809;49.594;8.734;2023-04-15T14:34:51;10.50;99.90
34574;DHT22;20809;49.594;8.734;2023-04-15T14:37:57;10.60;99.90
34574;DHT22;20809;49.594;8.734;2023-04-15T14:41:05;10.60;99.90
34574;DHT22;20809;49.594;8.734;2023-04-15T14:44:15;10.70;99.90
34574;DHT22;20809;49.594;8.734;2023-04-15T14:47:19;10.60;99.90
34574;DHT22;20809;49.594;8.734;2023-04-15T14:50:26;10.70;99.90
34574;DHT22;20809;49.594;8.734;2023-04-15T14:53:29;10.80;99.90
34574;DHT22;20809;49.594;8.734;2023-04-15T14:56:39;10.60;99.90
34574;DHT22;20809;49.594;8.734;2023-04-15T14:59:45;10.60;99.90
34574;DHT22;20809;49.594;8.734;2023-04-15T15:02:52;10.50;99.90
34574;DHT22;20809;49.594;8.734;2023-04-15T15:05:56;10.40;99.90
34574;DHT22;20809;49.594;8.734;2023-04-15T15:09:01;10.30;99.90
34574;DHT22;20809;49.594;8.734;2023-04-15T15:12:04;10.10;99.90
34574;DHT22;20809;49.594;8.734;2023-04-15T15:15:08;10.00;99.90
34574;DHT22;20809;49.594;8.734;2023-04-15T15:21:55;9.90;99.90
34574;DHT22;20809;49.594;8.734;2023-04-15T15:24:58;9.90;99.90
34574;DHT22;20809;49.594;8.734;2023-04-15T15:28:04;10.00;99.90
34574;DHT22;20809;49.594;8.734;2023-04-15T15:31:10;10.10;99.90
34574;DHT22;20809;49.594;8.734;2023-04-15T15:34:15;10.10;99.90
34574;DHT22;20809;49.594;8.734;2023-04-15T15:37:26;10.10;99.90
34574;DHT22;20809;49.594;8.734;2023-04-15T15:40:30;10.00;99.90
34574;DHT22;20809;49.594;8.734;2023-04-15T15:43:34;10.00;99.90
34574;DHT22;20809;49.594;8.734;2023-04-15T15:46:37;9.80;99.90
34574;DHT22;20809;49.594;8.734;2023-04-15T15:49:40;9.60;99.90
34574;DHT22;20809;49.594;8.734;2023-04-15T15:52:47;9.50;99.90
34574;DHT22;20809;49.594;8.734;2023-04-15T15:55:52;9.40;99.90
34574;DHT22;20809;49.594;8.734;2023-04-15T15:58:59;9.40;99.90
34574;DHT22;20809;49.594;8.734;2023-04-15T16:02:04;9.40;99.90
34574;DHT22;20809;49.594;8.734;2023-04-15T16:05:09;9.40;99.90
34574;DHT22;20809;49.594;8.734;2023-04-15T16:08:18;9.30;99.90
34574;DHT22;20809;49.594;8.734;2023-04-15T16:11:23;9.20;99.90
34574;DHT22;20809;49.594;8.734;2023-04-15T16:14:31;9.20;99.90
34574;DHT22;20809;49.594;8.734;2023-04-15T16:17:33;9.20;99.90
34574;DHT22;20809;49.594;8.734;2023-04-15T16:20:38;9.10;99.90
34574;DHT22;20809;49.594;8.734;2023-04-15T16:23:47;9.20;99.90
34574;DHT22;20809;49.594;8.734;2023-04-15T16:26:51;9.10;99.90
34574;DHT22;20809;49.594;8.734;2023-04-15T16:29:56;9.10;99.90
34574;DHT22;20809;49.594;8.734;2023-04-15T16:33:00;9.10;99.90
34574;DHT22;20809;49.594;8.734;2023-04-15T16:36:11;9.00;99.90
34574;DHT22;20809;49.594;8.734;2023-04-15T16:39:14;9.00;99.90
34574;DHT22;20809;49.594;8.734;2023-04-15T16:42:18;9.00;99.90
34574;DHT22;20809;49.594;8.734;2023-04-15T16:45:22;8.90;99.90
34574;DHT22;20809;49.594;8.734;2023-04-15T16:48:25;9.00;99.90
34574;DHT22;20809;49.594;8.734;2023-04-15T16:51:29;8.90;99.90
34574;DHT22;20809;49.594;8.734;2023-04-15T16:54:33;8.90;99.90
34574;DHT22;20809;49.594;8.734;2023-04-15T16:57:40;8.90;99.90
34574;DHT22;20809;49.594;8.734;2023-04-15T17:00:50;8.80;99.90
34574;DHT22;20809;49.594;8.734;2023-04-15T17:03:59;8.70;99.90
34574;DHT22;20809;49.594;8.734;2023-04-15T17:07:01;8.70;99.90
34574;DHT22;20809;49.594;8.734;2023-04-15T17:10:03;8.70;99.90
34574;DHT22;20809;49.594;8.734;2023-04-15T17:13:08;8.70;99.90
34574;DHT22;20809;49.594;8.734;2023-04-15T17:16:11;8.60;99.90
34574;DHT22;20809;49.594;8.734;2023-04-15T17:19:15;8.60;99.90
34574;DHT22;20809;49.594;8.734;2023-04-15T17:22:17;8.50;99.90
34574;DHT22;20809;49.594;8.734;2023-04-15T17:25:24;8.50;99.90
34574;DHT22;20809;49.594;8.734;2023-04-15T17:28:27;8.50;99.90
34574;DHT22;20809;49.594;8.734;2023-04-15T17:31:29;8.50;99.90
34574;DHT22;20809;49.594;8.734;2023-04-15T17:34:32;8.40;99.90
34574;DHT22;20809;49.594;8.734;2023-04-15T17:37:34;8.30;99.90
34574;DHT22;20809;49.594;8.734;2023-04-15T17:40:38;8.30;99.90
34574;DHT22;20809;49.594;8.734;2023-04-15T17:43:42;8.30;99.90
34574;DHT22;20809;49.594;8.734;2023-04-15T17:46:47;8.20;99.90
34574;DHT22;20809;49.594;8.734;2023-04-15T17:49:53;8.20;99.90
34574;DHT22;20809;49.594;8.734;2023-04-15T17:53:00;8.20;99.90
34574;DHT22;20809;49.594;8.734;2023-04-15T17:56:08;8.20;99.90
34574;DHT22;20809;49.594;8.734;2023-04-15T17:59:13;8.20;99.90
34574;DHT22;20809;49.594;8.734;2023-04-15T18:02:16;8.20;99.90
34574;DHT22;20809;49.594;8.734;2023-04-15T18:05:19;8.10;99.90
34574;DHT22;20809;49.594;8.734;2023-04-15T18:08:22;8.10;99.90
34574;DHT22;20809;49.594;8.734;2023-04-15T18:11:25;8.10;99.90
34574;DHT22;20809;49.594;8.734;2023-04-15T18:14:27;8.10;99.90
34574;DHT22;20809;49.594;8.734;2023-04-15T18:17:30;8.10;99.90
34574;DHT22;20809;49.594;8.734;2023-04-15T18:20:33;8.00;99.90
34574;DHT22;20809;49.594;8.734;2023-04-15T18:23:37;8.00;99.90
34574;DHT22;20809;49.594;8.734;2023-04-15T18:26:38;8.00;99.90
34574;DHT22;20809;49.594;8.734;2023-04-15T18:29:40;7.90;99.90
34574;DHT22;20809;49.594;8.734;2023-04-15T18:32:42;7.90;99.90
34574;DHT22;20809;49.594;8.734;2023-04-15T18:35:44;7.90;99.90
34574;DHT22;20809;49.594;8.734;2023-04-15T18:38:47;7.90;99.90
34574;DHT22;20809;49.594;8.734;2023-04-15T18:41:50;7.90;99.90
34574;DHT22;20809;49.594;8.734;2023-04-15T18:44:56;7.90;99.90
34574;DHT22;20809;49.594;8.734;2023-04-15T18:48:00;7.90;99.90
34574;DHT22;20809;49.594;8.734;2023-04-15T18:51:04;8.00;99.90
34574;DHT22;20809;49.594;8.734;2023-04-15T18:54:13;8.00;99.90
34574;DHT22;20809;49.594;8.734;2023-04-15T18:57:15;8.00;99.90
34574;DHT22;20809;49.594;8.734;2023-04-15T19:00:16;8.00;99.90
34574;DHT22;20809;49.594;8.734;2023-04-15T19:03:17;8.00;99.90
34574;DHT22;20809;49.594;8.734;2023-04-15T19:06:19;8.00;99.90
34574;DHT22;20809;49.594;8.734;2023-04-15T19:09:24;8.00;99.90
34574;DHT22;20809;49.594;8.734;2023-04-15T19:12:28;8.00;99.90
34574;DHT22;20809;49.594;8.734;2023-04-15T19:15:29;8.00;99.90
34574;DHT22;20809;49.594;8.734;2023-04-15T19:18:31;8.00;99.90
34574;DHT22;20809;49.594;8.734;2023-04-15T19:21:33;8.00;99.90
34574;DHT22;20809;49.594;8.734;2023-04-15T19:24:36;8.00;99.90
34574;DHT22;20809;49.594;8.734;2023-04-15T19:27:39;8.10;99.90
34574;DHT22;20809;49.594;8.734;2023-04-15T19:30:44;8.10;99.90
34574;DHT22;20809;49.594;8.734;2023-04-15T19:33:46;8.10;99.90
34574;DHT22;20809;49.594;8.734;2023-04-15T19:36:50;8.10;99.90
34574;DHT22;20809;49.594;8.734;2023-04-15T19:39:54;8.10;99.90
34574;DHT22;20809;49.594;8.734;2023-04-15T19:43:00;8.10;99.90
34574;DHT22;20809;49.594;8.734;2023-04-15T19:46:06;8.10;99.90
34574;DHT22;20809;49.594;8.734;2023-04-15T19:49:09;8.00;99.90
34574;DHT22;20809;49.594;8.734;2023-04-15T19:52:11;8.00;99.90
34574;DHT22;20809;49.594;8.734;2023-04-15T19:55:12;8.00;99.90